Main page
METAR-TAF:

METAR-TAF

Airports :

Blackpool Airport

Blackpool, England

latitude: 53-46N, longitude: 003-02W, elevation: 10 m

Current weather observation

The report was made 18 minutes ago, at 13:50 UTC
Wind 18 kt from the South/Southeast
Temperature 18°C
Humidity 42%
Pressure 1006 hPa
Visibility 10 km or more
no clouds below 1500 m and no cumulonimbus

METAR: EGNH 051350Z 15018KT CAVOK 18/05 Q1006

Time: 15:08 (14:08 UTC)

Forecast

The report was made 2 hours and 45 minutes ago, at 11:23 UTC
Forecast valid from 05 at 12 UTC to 05 at 20 UTC
Wind 17 kt from the South/Southeast
Visibility 10 km or more
no clouds below 1500 m and no cumulonimbus
Temporary
from 05 at 12 UTC to 05 at 20 UTC
Wind 22 kt from the South with gusts up to 35 kt

TAF: EGNH 051123Z 0512/0520 15017KT CAVOK TEMPO 0512/0520 17022G35KT

Weather observations and forecasts of more than 4000 airports (METAR and TAF reports).

The available stations are represented by yellow and red dots on the map.

Hover mouse over dot to see the name of the station.

Then click to see weather observations and forecasts.

To change the map : click on the green buttons with a black cross to zoom in, on the green button with a dash to zoom out, or on the green arrows for adjacent maps.


METAR-TAF: